Time;durP1;ratioP1;P1;durP2;ratioP2;P2;SDS_P1;SDS_P2;PMS_P1;PMS_P2;Temp;Humidity;BMP_temperature;BMP_pressure;BME280_temperature;BME280_humidity;BME280_pressure;Samples;Min_cycle;Max_cycle;Signal;HPM_P1;HPM_P2
2021/10/26 00:47:21;;;;;;;2.35;1.49;;;;;;;10.06;93.19;99783.22;2291870;69;20221;-81
2021/10/26 00:50:30;;;;;;;4.88;2.00;;;;;;;10.07;93.12;99786.66;2315185;69;20154;-86
2021/10/26 00:57:00;;;;;;;3.55;1.52;;;;;;;10.06;93.43;99791.00;2313903;69;20150;-81
2021/10/26 01:04:00;;;;;;;2.34;1.49;;;;;;;10.08;93.57;99783.22;2286683;69;20240;31
2021/10/26 01:11:00;;;;;;;1.74;1.24;;;;;;;10.11;93.74;99772.84;2311453;69;20127;-84
2021/10/26 01:14:23;;;;;;;1.91;1.27;;;;;;;10.10;93.63;99774.56;2303622;69;21040;31
2021/10/26 01:18:20;;;;;;;2.55;1.30;;;;;;;10.10;93.59;99778.91;2295080;69;20212;31
2021/10/26 01:22:21;;;;;;;2.89;1.36;;;;;;;10.09;93.54;99775.44;2312339;70;20204;-83
2021/10/26 01:37:31;;;;;;;5.80;1.75;;;;;;;10.07;94.26;99784.09;2327004;69;20181;-84
2021/10/26 03:03:33;;;;;;;3.24;1.66;;;;;;;10.32;93.08;99795.44;2289986;69;20236;31
2021/10/26 03:08:19;;;;;;;4.34;1.44;;;;;;;10.32;92.68;99803.22;2298771;70;20323;31
2021/10/26 03:17:40;;;;;;;2.51;1.74;;;;;;;10.37;92.70;99801.50;2292604;70;20553;31
2021/10/26 03:25:58;;;;;;;3.95;1.94;;;;;;;10.36;92.48;99803.22;2300614;69;20157;31
2021/10/26 03:34:09;;;;;;;6.86;1.70;;;;;;;10.40;92.43;99809.28;2293630;69;20212;31
2021/10/26 03:44:59;;;;;;;4.11;1.81;;;;;;;10.39;92.46;99812.75;2338969;69;20111;-80
2021/10/26 03:48:02;;;;;;;3.42;1.64;;;;;;;10.38;92.57;99806.69;2293946;69;20172;-79
2021/10/26 03:51:04;;;;;;;4.15;1.46;;;;;;;10.41;92.45;99814.50;2303356;69;20162;-78
2021/10/26 03:54:07;;;;;;;2.65;1.58;;;;;;;10.41;92.29;99817.09;2296854;69;20216;-79
2021/10/26 03:57:11;;;;;;;4.16;1.70;;;;;;;10.42;92.39;99817.97;2299075;69;20255;-80
2021/10/26 04:00:13;;;;;;;3.40;1.50;;;;;;;10.41;92.54;99817.09;2304386;69;20163;-81
2021/10/26 04:03:16;;;;;;;1.99;1.41;;;;;;;10.40;92.60;99815.34;2318007;69;20161;-81
2021/10/26 04:06:24;;;;;;;2.63;1.58;;;;;;;10.41;92.73;99813.63;2303148;69;20211;-82
2021/10/26 04:09:43;;;;;;;2.22;1.73;;;;;;;10.40;92.83;99817.06;2306834;69;20211;-81
2021/10/26 04:12:46;;;;;;;4.32;1.50;;;;;;;10.40;92.95;99817.06;2311935;69;20102;-81
2021/10/26 04:15:49;;;;;;;2.59;1.69;;;;;;;10.41;93.00;99818.81;2306682;69;20110;-82
2021/10/26 04:18:52;;;;;;;2.40;1.83;;;;;;;10.40;93.00;99820.53;2300271;69;20128;-82
2021/10/26 04:21:55;;;;;;;4.97;2.34;;;;;;;10.40;93.12;99822.25;2324887;69;20148;-83
2021/10/26 04:24:58;;;;;;;3.10;1.84;;;;;;;10.39;93.26;99821.41;2300367;69;20162;-83
2021/10/26 04:28:01;;;;;;;4.72;1.71;;;;;;;10.41;93.38;99832.69;2309919;69;20200;-83
2021/10/26 04:31:05;;;;;;;4.36;1.79;;;;;;;10.39;93.44;99825.72;2302327;69;20154;-82
2021/10/26 04:34:08;;;;;;;5.20;1.94;;;;;;;10.39;93.57;99836.09;2298016;70;20132;-82
2021/10/26 04:37:11;;;;;;;4.09;2.38;;;;;;;10.39;93.66;99843.91;2297476;70;20099;-83
2021/10/26 04:40:16;;;;;;;6.03;2.25;;;;;;;10.33;93.91;99834.38;2297546;74;20140;-83
2021/10/26 04:43:20;;;;;;;5.60;2.49;;;;;;;10.29;94.30;99840.41;2310152;69;20845;-84
2021/10/26 04:46:37;;;;;;;4.43;2.22;;;;;;;10.32;94.60;99845.63;2320811;69;20239;-82
2021/10/26 04:49:47;;;;;;;3.66;2.14;;;;;;;10.34;94.60;99840.44;2325964;69;20124;-83
2021/10/26 04:52:50;;;;;;;2.66;2.16;;;;;;;10.35;94.56;99834.38;2310030;69;20118;-82
2021/10/26 04:55:53;;;;;;;4.00;2.15;;;;;;;10.35;94.50;99845.63;2297310;74;20129;-82
2021/10/26 04:58:56;;;;;;;5.59;2.25;;;;;;;10.35;94.59;99847.34;2301463;69;20166;-83
2021/10/26 05:01:58;;;;;;;3.92;2.44;;;;;;;10.34;94.77;99849.06;2307822;70;20125;-82
2021/10/26 05:05:02;;;;;;;3.08;2.08;;;;;;;10.36;94.80;99841.28;2319978;69;20123;-83
2021/10/26 05:08:05;;;;;;;2.49;1.89;;;;;;;10.38;94.79;99844.75;2300847;70;20228;-82
2021/10/26 05:11:08;;;;;;;6.04;2.10;;;;;;;10.37;94.68;99846.50;2302894;70;20132;-82
2021/10/26 05:14:11;;;;;;;3.42;2.26;;;;;;;10.37;94.68;99841.28;2319141;70;20107;-82
2021/10/26 05:17:19;;;;;;;3.50;2.09;;;;;;;10.37;94.75;99853.41;2306317;69;20110;-81
2021/10/26 05:20:22;;;;;;;5.45;1.80;;;;;;;10.37;94.89;99846.50;2301686;69;20136;-82
2021/10/26 05:23:25;;;;;;;2.58;1.86;;;;;;;10.38;95.00;99849.94;2307765;69;20107;-83
2021/10/26 05:26:32;;;;;;;2.04;1.83;;;;;;;10.38;95.02;99850.81;2306039;69;20107;-82
2021/10/26 05:29:38;;;;;;;2.14;1.65;;;;;;;10.40;95.02;99856.00;2306523;69;20176;-83
2021/10/26 05:32:47;;;;;;;2.35;1.90;;;;;;;10.40;94.97;99859.47;2310174;70;20129;-83
2021/10/26 05:35:50;;;;;;;1.91;1.70;;;;;;;10.40;94.98;99859.47;2306712;69;20107;-82
2021/10/26 05:38:53;;;;;;;2.09;1.46;;;;;;;10.42;94.97;99867.28;2298747;70;20241;-83
2021/10/26 05:41:56;;;;;;;2.78;1.70;;;;;;;10.41;94.93;99868.13;2301226;70;20172;-83
2021/10/26 05:44:59;;;;;;;4.75;1.74;;;;;;;10.43;94.88;99869.91;2303818;69;20156;-82
2021/10/26 05:48:02;;;;;;;3.47;2.04;;;;;;;10.41;94.91;99863.84;2302721;69;20174;-83
2021/10/26 05:51:05;;;;;;;7.19;2.19;;;;;;;10.42;94.88;99870.75;2318324;69;20143;-83
2021/10/26 05:54:09;;;;;;;3.69;2.25;;;;;;;10.41;94.89;99870.72;2296674;70;20412;-82
2021/10/26 05:57:12;;;;;;;5.54;2.14;;;;;;;10.38;95.13;99860.34;2298832;70;20170;-83
2021/10/26 06:00:15;;;;;;;4.28;1.74;;;;;;;10.38;95.44;99866.41;2282268;70;20123;-82
2021/10/26 06:03:17;;;;;;;3.95;1.98;;;;;;;10.40;95.42;99869.84;2298164;70;20157;-82
2021/10/26 06:06:21;;;;;;;2.56;2.29;;;;;;;10.42;95.31;99869.91;2296533;70;20184;-82
2021/10/26 06:09:24;;;;;;;3.69;2.14;;;;;;;10.42;95.28;99878.56;2295439;70;20141;-83
2021/10/26 06:12:31;;;;;;;3.31;1.77;;;;;;;10.45;95.35;99882.88;2307916;69;20204;-84
2021/10/26 06:15:35;;;;;;;6.50;2.21;;;;;;;10.45;95.40;99888.06;2318986;69;20107;-84
2021/10/26 06:18:39;;;;;;;4.71;2.38;;;;;;;10.47;95.31;99887.22;2302641;70;20133;-83
2021/10/26 06:21:42;;;;;;;4.76;2.16;;;;;;;10.49;95.27;99898.47;2294356;70;20128;-83
2021/10/26 06:24:46;;;;;;;3.26;2.34;;;;;;;10.50;95.26;99895.00;2293246;70;20163;-84
2021/10/26 06:27:51;;;;;;;5.18;2.29;;;;;;;10.50;95.28;99895.00;2288439;70;20164;-84
2021/10/26 06:30:54;;;;;;;3.88;2.34;;;;;;;10.53;95.26;99905.41;2285265;70;20306;-80
2021/10/26 06:33:57;;;;;;;4.82;2.20;;;;;;;10.53;95.23;99905.41;2290221;70;20144;-82
2021/10/26 06:37:00;;;;;;;6.89;2.59;;;;;;;10.54;95.30;99908.88;2289953;70;20120;-82
2021/10/26 06:40:04;;;;;;;4.44;2.66;;;;;;;10.53;95.42;99912.31;2298801;70;20179;-83
2021/10/26 06:43:07;;;;;;;4.09;2.69;;;;;;;10.55;95.47;99926.19;2298404;69;20115;-82
2021/10/26 06:46:09;;;;;;;4.43;2.60;;;;;;;10.58;95.46;99933.97;2307692;69;20110;-83
2021/10/26 06:49:12;;;;;;;4.54;2.24;;;;;;;10.60;95.35;99940.06;2321182;69;20152;-83
2021/10/26 06:52:15;;;;;;;3.84;2.53;;;;;;;10.61;95.24;99941.81;2304553;69;20107;-82
2021/10/26 06:55:19;;;;;;;2.46;2.24;;;;;;;10.61;95.33;99939.22;2305520;69;20148;-81
2021/10/26 06:58:22;;;;;;;4.55;2.69;;;;;;;10.62;95.36;99945.25;2302663;69;20158;-81
2021/10/26 07:01:25;;;;;;;5.22;2.28;;;;;;;10.64;95.41;99940.94;2312228;69;20110;-81
2021/10/26 07:04:28;;;;;;;3.86;2.41;;;;;;;10.65;95.48;99940.09;2302566;70;20270;-81
2021/10/26 07:07:33;;;;;;;3.53;1.69;;;;;;;10.66;95.44;99942.69;2305097;69;20103;-80
2021/10/26 07:10:38;;;;;;;2.63;1.96;;;;;;;10.70;95.55;99949.63;2293448;70;20174;-81
2021/10/26 07:13:41;;;;;;;5.68;2.21;;;;;;;10.72;95.58;99949.63;2291902;70;20124;-81
2021/10/26 07:16:45;;;;;;;5.90;3.36;;;;;;;10.76;95.60;99953.97;2296644;70;20112;-82
2021/10/26 07:19:47;;;;;;;5.38;2.59;;;;;;;10.79;95.54;99954.88;2297557;70;20131;-82
2021/10/26 07:22:53;;;;;;;6.16;2.76;;;;;;;10.82;95.52;99960.06;2299791;69;20199;-83
2021/10/26 07:25:56;;;;;;;4.76;2.47;;;;;;;10.84;95.40;99960.94;2296449;70;20112;-83
2021/10/26 07:28:59;;;;;;;4.30;2.70;;;;;;;10.86;95.38;99972.19;2295864;69;20099;-84
2021/10/26 07:32:02;;;;;;;3.31;2.21;;;;;;;10.87;95.32;99968.72;2278725;70;20113;-81
2021/10/26 07:35:05;;;;;;;2.74;2.26;;;;;;;10.90;95.38;99979.13;2284034;70;20121;-84
2021/10/26 07:38:11;;;;;;;4.29;2.65;;;;;;;10.94;95.42;99986.94;2290549;70;20121;-83
2021/10/26 07:41:14;;;;;;;2.75;2.55;;;;;;;10.97;95.45;99990.44;2292775;70;20154;-82
2021/10/26 07:44:17;;;;;;;4.09;2.19;;;;;;;10.98;95.50;99991.31;2290248;70;20160;-83
2021/10/26 07:47:21;;;;;;;2.94;2.08;;;;;;;11.00;95.49;99998.22;2285777;70;114607;-83
2021/10/26 07:50:25;;;;;;;5.78;2.53;;;;;;;11.01;95.57;99999.09;2296195;70;20170;-82
2021/10/26 07:53:34;;;;;;;5.43;2.60;;;;;;;11.04;95.62;100001.69;2318687;69;20110;-82
2021/10/26 07:56:42;;;;;;;4.93;2.49;;;;;;;11.08;95.59;100006.91;2312316;69;20146;-82
2021/10/26 07:59:46;;;;;;;3.81;2.50;;;;;;;11.12;95.64;100011.25;2303036;69;20110;-82
2021/10/26 08:02:50;;;;;;;4.01;2.65;;;;;;;11.16;95.53;100013.03;2306535;69;20125;-82
2021/10/26 08:05:54;;;;;;;5.56;3.08;;;;;;;11.22;95.52;100019.09;2307156;69;20222;-81
2021/10/26 08:08:57;;;;;;;4.06;2.95;;;;;;;11.30;95.48;100020.84;2310000;69;20180;-81
2021/10/26 08:12:01;;;;;;;10.04;3.20;;;;;;;11.38;95.38;100024.34;2307453;69;20119;-83
2021/10/26 08:15:05;;;;;;;8.23;3.49;;;;;;;11.39;95.24;100020.00;2308696;69;20655;-83
2021/10/26 08:18:09;;;;;;;7.38;3.70;;;;;;;11.37;95.06;100030.41;2308288;69;20595;-83
2021/10/26 08:21:15;;;;;;;6.57;3.41;;;;;;;11.37;94.93;100022.59;2301867;70;20133;-83
2021/10/26 08:24:21;;;;;;;6.18;3.69;;;;;;;11.39;94.84;100033.88;2307253;69;20227;-83
2021/10/26 08:27:24;;;;;;;7.13;3.21;;;;;;;11.48;94.76;100033.00;2301820;70;20145;-83
2021/10/26 08:30:39;;;;;;;6.05;3.97;;;;;;;11.55;94.61;100029.56;2301915;70;20228;-83
2021/10/26 08:34:07;;;;;;;8.43;3.39;;;;;;;11.66;94.62;100032.19;2306611;69;20170;-83
2021/10/26 08:37:13;;;;;;;4.10;3.10;;;;;;;11.84;94.44;100028.75;2303845;69;20115;-83
2021/10/26 08:40:23;;;;;;;7.72;3.50;;;;;;;12.04;93.97;100034.88;2301845;70;20099;-84
2021/10/26 08:43:46;;;;;;;11.93;4.12;;;;;;;12.12;93.05;100033.13;2304039;69;20264;-83
2021/10/26 08:47:06;;;;;;;7.93;3.67;;;;;;;12.16;92.34;100028.78;2303857;69;20144;-83
2021/10/26 08:51:02;;;;;;;7.30;3.60;;;;;;;12.21;92.12;100024.41;2315543;69;20103;-83
2021/10/26 08:55:02;;;;;;;5.56;3.65;;;;;;;12.28;91.74;100019.22;2315105;69;20114;-82
2021/10/26 08:59:24;;;;;;;6.89;3.30;;;;;;;12.41;91.30;100020.09;2318400;69;21105;-84
2021/10/26 09:07:41;;;;;;;8.00;3.00;;;;;;;12.67;90.28;100026.09;2322852;69;20110;-82
2021/10/26 09:28:13;;;;;;;5.02;3.18;;;;;;;12.56;87.95;100035.66;2313108;69;20210;-82
2021/10/26 09:32:13;;;;;;;6.69;2.31;;;;;;;12.48;88.39;100023.53;2315412;69;20134;-82
2021/10/26 09:36:24;;;;;;;3.45;2.26;;;;;;;12.38;88.85;100027.88;2329714;69;20189;-82
2021/10/26 09:40:20;;;;;;;4.86;2.28;;;;;;;12.31;89.35;100033.97;2334760;69;20280;-81
2021/10/26 09:44:28;;;;;;;2.69;2.03;;;;;;;12.29;89.66;100025.28;2330531;69;20290;-82
2021/10/26 09:48:31;;;;;;;4.21;2.34;;;;;;;12.28;89.92;100034.84;2309150;67;20191;-83
2021/10/26 09:52:57;;;;;;;2.94;1.96;;;;;;;12.25;90.08;100039.19;2241774;72;20202;-82
2021/10/26 09:56:55;;;;;;;4.21;1.95;;;;;;;12.26;90.55;100033.97;2240664;72;20186;-84
2021/10/26 10:00:51;;;;;;;3.40;1.88;;;;;;;12.34;91.18;100041.78;2232192;72;20171;-83
2021/10/26 10:05:08;;;;;;;4.32;2.20;;;;;;;12.45;91.22;100041.78;2337089;68;20142;-83
2021/10/26 10:17:12;;;;;;;3.51;1.60;;;;;;;12.89;90.54;100047.72;2299924;69;1558167;-83
2021/10/26 10:20:37;;;;;;;4.69;1.69;;;;;;;12.91;89.43;100037.28;2292252;69;20195;-79
2021/10/26 10:23:48;;;;;;;1.73;1.16;;;;;;;13.00;89.40;100040.75;2321014;69;20106;-81
2021/10/26 10:27:39;;;;;;;2.30;1.20;;;;;;;13.07;89.09;100031.16;2305801;69;20128;-82
2021/10/26 10:35:32;;;;;;;2.21;1.10;;;;;;;13.19;88.74;100033.75;2298985;69;20138;-81
2021/10/26 11:15:43;;;;;;;1.34;0.90;;;;;;;13.82;85.68;100023.81;2315733;69;20242;-83
2021/10/26 11:18:47;;;;;;;1.94;0.80;;;;;;;14.14;84.68;100033.09;2317088;69;20152;-81
2021/10/26 11:21:50;;;;;;;1.52;0.90;;;;;;;14.26;83.28;100035.63;2311372;69;20148;-78
2021/10/26 11:25:17;;;;;;;2.78;1.31;;;;;;;14.30;82.43;100028.63;2316505;69;20167;-77
2021/10/26 11:28:29;;;;;;;1.51;0.70;;;;;;;14.29;82.30;100025.16;2317889;69;20133;-78
2021/10/26 11:31:42;;;;;;;1.27;0.69;;;;;;;14.44;81.31;100032.88;2298335;69;987536;-78
2021/10/26 11:34:45;;;;;;;0.96;0.70;;;;;;;14.64;80.79;100032.66;2316126;69;20186;-78
2021/10/26 11:37:49;;;;;;;0.79;0.60;;;;;;;14.86;79.55;100021.97;2314865;69;20683;-80
2021/10/26 11:40:57;;;;;;;0.70;0.70;;;;;;;15.04;78.20;100027.84;2314724;69;20177;-80
2021/10/26 11:44:03;;;;;;;;;;;;;;;15.24;77.48;100024.09;2310650;69;20228;-80
2021/10/26 11:47:07;;;;;;;2.79;0.60;;;;;;;15.49;76.96;100025.50;2314851;66;49291;-80
2021/10/26 11:50:11;;;;;;;1.20;0.55;;;;;;;15.70;75.60;100024.38;2311148;69;20583;-80
2021/10/26 11:53:25;;;;;;;0.44;0.41;;;;;;;15.99;75.45;100023.91;2316062;69;20152;-79
2021/10/26 11:56:29;;;;;;;0.50;0.41;;;;;;;16.06;72.74;100027.28;2317181;69;20149;-79
2021/10/26 11:59:40;;;;;;;0.70;0.39;;;;;;;15.90;71.55;100027.53;2317503;69;20221;-80
2021/10/26 12:03:00;;;;;;;2.16;0.50;;;;;;;15.58;70.54;100027.13;2289031;69;2236250;-80
2021/10/26 12:06:03;;;;;;;0.90;0.40;;;;;;;15.27;70.76;100030.19;2315320;69;20771;-80
2021/10/26 12:09:12;;;;;;;2.75;0.60;;;;;;;15.18;71.93;100027.66;2316549;69;20174;-80
2021/10/26 12:12:19;;;;;;;1.02;0.44;;;;;;;15.18;72.70;100026.81;2316256;69;20136;-80
2021/10/26 12:15:23;;;;;;;0.76;0.41;;;;;;;15.24;72.81;100026.72;2313885;66;21026;-80
2021/10/26 12:18:33;;;;;;;1.39;0.40;;;;;;;15.30;73.07;100026.66;2300585;69;20213;-80
2021/10/26 12:21:51;;;;;;;0.35;0.30;;;;;;;15.30;72.91;100024.03;2316101;69;20179;-79
2021/10/26 12:26:12;;;;;;;1.24;0.47;;;;;;;15.29;72.40;100019.69;2310936;69;20244;-79
2021/10/26 12:28:56;;;;;;;0.99;0.40;;;;;;;15.35;71.39;100027.44;2313091;69;21100;-79
2021/10/26 12:32:02;;;;;;;1.23;0.40;;;;;;;15.66;70.44;100017.44;2312275;66;24234;-80
2021/10/26 12:35:09;;;;;;;1.29;0.40;;;;;;;15.85;70.26;100011.03;2316428;69;20160;-80
2021/10/26 12:38:16;;;;;;;0.50;0.32;;;;;;;15.73;68.64;100013.84;2316072;69;20217;-79
2021/10/26 12:41:51;;;;;;;1.08;0.30;;;;;;;15.55;68.50;100011.47;2315584;69;20149;-80
2021/10/26 12:54:19;;;;;;;1.54;0.30;;;;;;;15.86;65.88;100012.75;2310717;69;20148;-80
2021/10/26 12:57:36;;;;;;;0.93;0.30;;;;;;;15.76;66.29;100012.91;2309376;69;20180;-79
2021/10/26 13:00:46;;;;;;;1.48;0.30;;;;;;;15.56;64.22;100005.34;2300208;69;20250;-79
2021/10/26 13:04:19;;;;;;;0.64;0.39;;;;;;;15.58;64.76;99998.31;2308001;69;20283;-80
2021/10/26 13:07:29;;;;;;;2.19;0.40;;;;;;;15.71;64.15;100000.78;2303481;69;20170;-80
2021/10/26 13:10:32;;;;;;;1.13;0.40;;;;;;;15.71;64.53;100003.38;2307906;69;20141;-80
2021/10/26 13:13:35;;;;;;;1.56;0.40;;;;;;;15.69;63.94;100005.16;2308956;69;20185;-80
2021/10/26 13:16:40;;;;;;;2.11;0.50;;;;;;;15.75;63.78;100003.34;2302964;66;39667;-80
2021/10/26 13:19:43;;;;;;;0.93;0.30;;;;;;;15.65;63.99;100000.88;2307903;69;20676;-80
2021/10/26 13:23:19;;;;;;;7.88;4.35;;;;;;;15.48;64.58;100000.22;2308659;69;20157;-80
2021/10/26 13:26:22;;;;;;;1.51;0.76;;;;;;;15.35;65.85;100004.75;2306726;69;20695;-80
2021/10/26 13:29:36;;;;;;;1.36;0.50;;;;;;;15.24;66.17;100008.41;2307146;69;20160;-79
2021/10/26 13:32:39;;;;;;;1.51;0.50;;;;;;;15.14;66.71;100012.91;2306514;66;31457;-80
2021/10/26 13:39:26;;;;;;;1.98;0.60;;;;;;;14.87;67.09;100008.00;2296135;70;20166;-79
2021/10/26 13:42:32;;;;;;;2.08;0.50;;;;;;;14.67;67.31;100016.94;2296106;69;21101;-78
2021/10/26 13:45:35;;;;;;;1.67;0.63;;;;;;;14.54;67.56;100028.41;2293229;66;37850;-78
2021/10/26 13:48:38;;;;;;;3.64;0.45;;;;;;;14.43;68.06;100030.25;2295382;69;20242;-77
2021/10/26 13:51:43;;;;;;;3.49;0.60;;;;;;;14.34;68.31;100036.41;2295359;69;20235;-78
2021/10/26 13:54:45;;;;;;;1.71;0.47;;;;;;;14.24;67.87;100041.75;2296907;69;20227;-78
2021/10/26 13:57:48;;;;;;;1.56;0.47;;;;;;;14.23;68.44;100037.41;2296621;69;21429;-77
2021/10/26 14:00:53;;;;;;;1.64;0.56;;;;;;;14.29;68.67;100034.72;2304914;66;27850;-78
2021/10/26 14:03:55;;;;;;;1.35;0.52;;;;;;;14.28;68.15;100036.47;2301946;69;20187;-77
2021/10/26 14:10:11;;;;;;;2.26;0.55;;;;;;;14.40;68.67;100040.72;2305623;69;20247;-77
2021/10/26 14:13:14;;;;;;;1.17;0.40;;;;;;;14.43;68.26;100038.09;2307903;69;20250;-78
2021/10/26 14:16:17;;;;;;;3.41;0.60;;;;;;;14.51;68.53;100039.75;2305839;66;21503;-78
2021/10/26 14:19:22;;;;;;;1.92;0.64;;;;;;;14.58;68.38;100032.75;2302795;69;20271;-78
2021/10/26 14:22:24;;;;;;;3.24;0.60;;;;;;;14.62;68.40;100031.81;2312348;69;20245;-78
2021/10/26 14:25:27;;;;;;;1.30;0.70;;;;;;;14.61;68.19;100029.22;2306529;69;20987;-77
2021/10/26 14:28:30;;;;;;;6.59;4.79;;;;;;;14.56;68.41;100031.91;2301549;69;20222;-77
2021/10/26 14:31:34;;;;;;;15.93;13.23;;;;;;;14.53;68.31;100037.13;2304747;66;26551;-77
2021/10/26 14:34:38;;;;;;;8.19;6.56;;;;;;;14.47;67.60;100045.03;2306533;69;20230;-78
2021/10/26 14:37:49;;;;;;;3.47;1.92;;;;;;;14.38;67.91;100045.09;2303542;69;20168;-77
2021/10/26 14:54:14;;;;;;;3.06;1.10;;;;;;;14.09;68.26;100042.75;2306823;69;20181;-77
2021/10/26 15:00:42;;;;;;;1.49;0.70;;;;;;;13.88;69.14;100057.69;2289855;66;21040;-78
2021/10/26 15:03:44;;;;;;;1.29;0.70;;;;;;;13.76;69.43;100072.56;2293876;69;20150;-77
2021/10/26 15:10:15;;;;;;;2.06;0.81;;;;;;;13.65;70.24;100077.00;2305112;69;21093;-76
2021/10/26 15:13:24;;;;;;;2.45;0.63;;;;;;;13.67;70.26;100070.91;2306810;69;20582;-76
2021/10/26 15:16:26;;;;;;;;;;;;;;;13.71;69.67;100076.94;2305493;67;28375;-76
2021/10/26 15:33:33;;;;;;;2.24;0.57;;;;;;;13.21;70.02;100098.94;2281020;70;20980;-77
2021/10/26 15:36:37;;;;;;;3.21;1.00;;;;;;;13.10;71.04;100098.06;2282449;70;20160;-77
2021/10/26 15:39:40;;;;;;;5.30;0.64;;;;;;;13.05;71.53;100102.44;2282390;70;20176;-77
2021/10/26 15:42:44;;;;;;;1.40;0.60;;;;;;;12.96;72.83;100108.56;2283034;70;20283;-77
2021/10/26 15:45:48;;;;;;;1.25;0.51;;;;;;;12.91;74.06;100102.47;2280829;67;21699;-77
2021/10/26 15:48:51;;;;;;;4.29;0.52;;;;;;;12.87;75.16;100100.75;2275581;70;20161;-77
2021/10/26 15:51:53;;;;;;;2.03;0.65;;;;;;;12.84;75.94;100103.34;2273351;70;20211;-77
2021/10/26 15:54:56;;;;;;;4.20;0.65;;;;;;;12.75;77.23;100112.06;2273992;70;20164;-77
2021/10/26 15:57:59;;;;;;;1.51;0.52;;;;;;;12.71;78.08;100111.19;2273455;70;20140;-77
2021/10/26 16:01:03;;;;;;;1.21;0.61;;;;;;;12.68;77.88;100108.59;2277182;67;21453;-77
2021/10/26 16:04:06;;;;;;;3.03;0.70;;;;;;;12.61;78.25;100101.66;2279574;70;20257;-77
2021/10/26 16:07:09;;;;;;;1.76;0.70;;;;;;;12.54;78.36;100112.06;2280206;70;21092;-77
2021/10/26 16:10:20;;;;;;;2.97;0.70;;;;;;;12.49;78.74;100113.81;2279529;70;20509;-77
2021/10/26 16:13:28;;;;;;;1.83;0.65;;;;;;;12.45;78.54;100107.75;2280586;70;20692;-77
2021/10/26 16:16:39;;;;;;;2.14;0.60;;;;;;;12.38;79.05;100113.81;2278703;67;23053;-77
2021/10/26 16:19:42;;;;;;;3.89;0.80;;;;;;;12.34;79.57;100110.34;2280714;70;20182;-77
2021/10/26 16:22:46;;;;;;;1.17;0.60;;;;;;;12.32;79.24;100116.44;2281263;70;20183;-77
2021/10/26 16:25:49;;;;;;;1.58;0.63;;;;;;;12.28;78.39;100123.38;2279999;70;20985;-77
2021/10/26 16:28:55;;;;;;;2.69;0.60;;;;;;;12.24;79.03;100126.84;2275067;70;20167;-77
2021/10/26 16:31:57;;;;;;;1.39;0.74;;;;;;;12.20;79.38;100126.81;2277198;70;21265;-77
2021/10/26 16:35:01;;;;;;;2.14;0.63;;;;;;;12.17;78.33;100126.84;2279046;70;20708;-77
2021/10/26 16:38:04;;;;;;;4.30;0.77;;;;;;;12.13;78.12;100130.31;2279240;70;20163;-76
2021/10/26 16:41:08;;;;;;;2.24;0.64;;;;;;;12.08;78.60;100133.78;2279058;70;20167;-77
2021/10/26 16:44:48;;;;;;;1.16;0.60;;;;;;;12.03;78.52;100139.84;2279442;70;20253;-76
2021/10/26 16:47:41;;;;;;;3.06;0.60;;;;;;;11.99;77.94;100131.16;2277349;67;22206;-77
2021/10/26 16:50:43;;;;;;;1.74;0.46;;;;;;;11.97;77.95;100138.09;2278748;70;20195;-77
2021/10/26 16:53:48;;;;;;;2.24;0.50;;;;;;;11.92;77.94;100141.56;2279026;70;20179;-77
2021/10/26 16:56:52;;;;;;;2.40;0.60;;;;;;;11.88;78.33;100140.69;2278814;70;20273;-77
2021/10/26 16:59:56;;;;;;;1.44;0.50;;;;;;;11.81;79.08;100138.91;2279843;70;20249;-77
2021/10/26 17:03:04;;;;;;;2.11;0.70;;;;;;;11.77;79.64;100145.81;2275590;67;21852;-77
2021/10/26 17:06:07;;;;;;;1.70;0.58;;;;;;;11.71;80.07;100144.94;2278145;70;20225;-77
2021/10/26 17:09:10;;;;;;;2.76;0.64;;;;;;;11.61;80.17;100154.44;2278426;70;20195;-77
2021/10/26 17:12:14;;;;;;;1.52;0.49;;;;;;;11.49;80.80;100157.88;2279200;70;20257;-77
2021/10/26 17:15:22;;;;;;;0.99;0.50;;;;;;;11.39;81.33;100161.28;2278425;70;20570;-77
2021/10/26 17:18:25;;;;;;;2.78;0.50;;;;;;;11.24;82.41;100169.00;2278811;70;20179;-77
2021/10/26 17:21:27;;;;;;;2.09;0.50;;;;;;;11.11;82.67;100172.38;2279082;70;20258;-77
2021/10/26 17:24:32;;;;;;;2.24;0.60;;;;;;;11.01;83.16;100174.06;2279390;70;20159;-77
2021/10/26 17:27:35;;;;;;;3.95;0.60;;;;;;;10.90;83.43;100179.19;2275181;70;20208;-78
2021/10/26 17:30:37;;;;;;;2.79;0.41;;;;;;;10.76;83.56;100180.81;2273791;67;23359;-78
2021/10/26 17:33:40;;;;;;;5.24;0.74;;;;;;;10.64;83.89;100185.06;2292791;69;20143;-80
2021/10/26 17:36:45;;;;;;;2.66;0.52;;;;;;;10.51;84.13;100194.47;2305915;70;20116;-81
2021/10/26 17:39:47;;;;;;;1.26;0.56;;;;;;;10.37;84.23;100190.88;2309125;69;20120;-80
2021/10/26 17:42:50;;;;;;;2.08;0.50;;;;;;;10.22;84.40;100192.47;2304334;69;20153;-80
2021/10/26 17:45:53;;;;;;;5.41;0.65;;;;;;;10.06;84.75;100180.19;2305345;67;32056;-81
2021/10/26 17:49:00;;;;;;;1.67;0.61;;;;;;;9.92;85.06;100189.53;2312249;70;20123;-79
2021/10/26 17:52:03;;;;;;;2.29;0.40;;;;;;;9.80;85.42;100189.38;2305192;70;20142;-81
2021/10/26 17:55:06;;;;;;;1.40;0.50;;;;;;;9.66;85.73;100187.50;2305613;69;20100;-80
2021/10/26 17:58:09;;;;;;;3.47;0.60;;;;;;;9.56;86.21;100196.03;2309379;69;20126;-80
2021/10/26 18:01:15;;;;;;;1.38;0.50;;;;;;;9.47;86.59;100201.06;2313812;69;20161;-82
2021/10/26 18:04:17;;;;;;;2.79;0.61;;;;;;;9.39;87.09;100202.72;2309318;69;20122;-80
2021/10/26 18:07:20;;;;;;;6.34;0.74;;;;;;;9.34;87.17;100212.16;2308742;69;20103;-80
2021/10/26 18:10:23;;;;;;;1.06;0.45;;;;;;;9.25;87.10;100210.28;2310957;69;21358;-81
2021/10/26 18:13:32;;;;;;;1.24;0.50;;;;;;;9.14;87.38;100211.84;2299536;69;20250;-80
2021/10/26 18:16:35;;;;;;;1.65;0.50;;;;;;;9.11;87.80;100218.72;2310258;69;20115;-81
2021/10/26 18:19:39;;;;;;;4.49;1.20;;;;;;;9.05;87.92;100217.78;2316225;69;20289;-81
2021/10/26 18:22:42;;;;;;;3.11;0.60;;;;;;;9.02;88.16;100219.47;2306643;69;20141;-79
2021/10/26 18:25:45;;;;;;;1.19;0.50;;;;;;;8.99;88.44;100228.06;2310103;69;20316;-81
2021/10/26 18:28:51;;;;;;;3.83;0.70;;;;;;;8.93;88.57;100229.66;2308625;69;20316;-80
2021/10/26 18:31:54;;;;;;;4.34;0.66;;;;;;;8.86;88.72;100231.28;2313611;69;20312;-81
2021/10/26 18:51:12;;;;;;;2.24;0.90;;;;;;;8.45;89.23;100234.06;2274876;70;20326;-82
2021/10/26 18:54:35;;;;;;;1.96;0.70;;;;;;;8.36;89.30;100238.19;2286391;70;20255;-83
2021/10/26 19:09:55;;;;;;;4.04;0.77;;;;;;;8.12;90.05;100225.66;2294479;69;20350;-81
2021/10/26 19:13:59;;;;;;;2.42;0.70;;;;;;;8.06;90.17;100222.94;2291475;70;20338;-82
2021/10/26 19:18:03;;;;;;;2.51;0.89;;;;;;;7.98;90.22;100219.34;2285537;70;20319;-81
2021/10/26 19:21:48;;;;;;;4.82;1.09;;;;;;;7.96;90.32;100223.63;2292535;70;20285;-81
2021/10/26 19:29:56;;;;;;;2.67;1.09;;;;;;;7.87;90.68;100219.13;2239544;71;20077;-80
2021/10/26 19:50:22;;;;;;;2.25;0.90;;;;;;;7.65;91.16;100225.59;2292777;70;20275;-81
2021/10/26 19:59:24;;;;;;;3.53;0.90;;;;;;;7.73;91.84;100218.00;2269315;71;20157;-81
2021/10/26 20:02:40;;;;;;;3.01;1.19;;;;;;;7.78;92.24;100222.41;2258542;71;20336;-80
2021/10/26 20:05:59;;;;;;;7.84;1.83;;;;;;;7.79;92.24;100216.41;2263011;71;20331;-80
2021/10/26 20:09:09;;;;;;;2.16;1.00;;;;;;;7.86;92.45;100223.44;2261105;71;20460;-81
2021/10/26 20:13:26;;;;;;;8.57;1.27;;;;;;;7.85;92.34;100221.69;2262008;71;20393;-80
2021/10/26 20:17:03;;;;;;;4.56;1.30;;;;;;;7.85;92.31;100213.06;2266686;67;153897;-81
2021/10/26 20:20:53;;;;;;;;;;;;;;;;;;;;;
2021/10/26 20:25:03;;;;;;;2.56;1.20;;;;;;;7.81;91.83;100216.44;2245207;72;20457;-80
2021/10/26 20:39:43;;;;;;;;;;;;;;;7.88;92.05;100245.00;2295257;70;20338;-81
2021/10/26 20:43:42;;;;;;;3.08;1.52;;;;;;;7.95;92.34;100247.75;2290730;70;20181;-81
2021/10/26 20:47:03;;;;;;;3.65;1.90;;;;;;;7.99;92.71;100244.38;2291655;69;20312;-83
2021/10/26 20:50:13;;;;;;;3.10;1.65;;;;;;;8.05;92.77;100249.66;2280993;70;20366;-81
2021/10/26 20:53:32;;;;;;;3.81;1.75;;;;;;;8.09;92.71;100251.47;2268439;71;20369;-81
2021/10/26 20:56:37;;;;;;;3.58;1.70;;;;;;;8.13;92.52;100253.28;2278252;70;20310;-80
2021/10/26 20:59:40;;;;;;;3.81;1.65;;;;;;;8.16;92.41;100258.50;2283720;71;20267;-81
2021/10/26 21:02:43;;;;;;;3.92;2.10;;;;;;;8.18;92.34;100257.69;2292529;68;44884;-82
2021/10/26 21:05:47;;;;;;;4.69;1.91;;;;;;;8.21;92.51;100256.00;2283958;70;20296;-81